Latest Coastal Weather Observations for Lake Macquarie - Cooranbong

IDN60701

Issued at 7:41 am EDT Thursday 14 December 2017 (issued every 10 minutes, with the page automatically refreshed every 10 minutes)

About coastal observations | Map of coastal stations | Coastal observations for NSW | Marine services | Other Formats
Station Details ID: 061412 Name: LAKE MACQUARIE AWS Lat: -33.09 Lon: 151.46 Height: 6.0 m
Data from the previous 72 hours. | See also: Recent months at Lake Macquarie - Cooranbong
Date/Time
EDT
Temp
°C
Wind Pressure Rain since
9am
mm
Weather Cloud Vis
km
Sea
Height
m
Swell
Dir  Spd
kts
Gust
kts
hPa Trend Height
m
Period
s
Dir
14/07:30am 20.8 N 1 3 1008.9 - 0.0 - - - - - - -
14/07:00am 18.4 CALM 0 2 1009.1 - 0.0 - - - - - - -
14/06:30am 17.1 CALM 0 1 1009.1 - 0.0 - - - - - - -
14/06:00am 16.4 CALM 0 0 1009.1 - 0.0 - - - - - - -
14/05:30am 16.4 CALM 0 0 1009.0 - 0.0 - - - - - - -
14/05:00am 16.8 CALM 0 0 1009.0 - 0.0 - - - - - - -
14/04:30am 16.6 CALM 0 0 1008.9 - 0.0 - - - - - - -
14/04:00am 17.3 CALM 0 1 1008.9 - 0.0 - - - - - - -
14/03:30am 17.3 CALM 0 0 1009.0 - 0.0 - - - - - - -
14/03:00am 17.6 CALM 0 0 1008.9 - 0.0 - - - - - - -
14/02:30am 17.9 CALM 0 0 1009.0 - 0.0 - - - - - - -
14/02:00am 18.5 CALM 0 0 1009.0 - 0.0 - - - - - - -
14/01:30am 18.9 CALM 0 0 1009.1 - 0.0 - - - - - - -
14/01:00am 18.7 CALM 0 0 1009.4 - 0.0 - - - - - - -
14/12:30am 19.1 CALM 0 0 1009.7 - 0.0 - - - - - - -
14/12:00am 19.7 CALM 0 0 1010.0 - 0.0 - - - - - - -
 
Date/Time
EDT
Temp
°C
Wind Pressure Rain since
9am
mm
Weather Cloud Vis
km
Sea
Height
m
Swell
Dir  Spd
kts
Gust
kts
hPa Trend Height
m
Period
s
Dir
13/11:30pm 20.4 CALM 0 0 1010.2 - 0.0 - - - - - - -
13/11:00pm 21.2 CALM 0 0 1010.5 - 0.0 - - - - - - -
13/10:30pm 22.6 CALM 0 0 1010.5 - 0.0 - - - - - - -
13/10:00pm 23.5 NE 2 4 1010.5 - 0.0 - - - - - - -
13/09:30pm 23.6 E 2 3 1010.5 - 0.0 - - - - - - -
13/09:00pm 25.3 CALM 0 1 1010.2 - 0.0 - - - - - - -
13/08:30pm 25.1 E 3 4 1010.0 - 0.0 - - - - - - -
13/08:00pm 25.7 ESE 2 3 1009.8 - 0.0 - - - - - - -
13/07:30pm 27.6 E 2 3 1009.8 - 0.0 - - - - - - -
13/07:00pm 27.3 ESE 4 5 1009.7 - 0.0 - - - - - - -
13/06:30pm 28.4 ESE 5 7 1009.5 - 0.0 - - - - - - -
13/06:00pm 27.4 ESE 6 8 1009.5 - 0.0 - - - - - - -
13/05:30pm 28.3 ESE 7 10 1009.5 - 0.0 - - - - - - -
13/05:00pm 29.0 ESE 6 11 1009.5 - 0.0 - - - - - - -
13/04:30pm 29.3 ESE 6 11 1009.8 - 0.0 - - - - - - -
13/04:00pm 29.2 ESE 7 12 1010.3 - 0.0 - - - - - - -
13/03:30pm 28.7 ESE 9 13 1010.5 - 0.0 - - - - - - -
13/03:00pm 28.4 ESE 9 15 1010.9 - 0.0 - - - - - - -
13/02:30pm 27.8 ESE 10 15 1011.3 - 0.0 - - - - - - -
13/02:00pm 27.7 E 9 15 1011.7 - 0.0 - - - - - - -
13/01:30pm 27.3 E 8 14 1012.2 - 0.0 - - - - - - -
13/01:00pm 26.9 E 8 13 1012.5 - 0.0 - - - - - - -
13/12:30pm 27.3 E 7 13 1013.0 - 0.0 - - - - - - -
13/12:00pm 28.4 E 5 9 1013.2 - 0.0 - - - - - - -
13/11:30am 28.5 ESE 6 10 1013.4 - 0.0 - - - - - - -
13/11:00am 28.7 E 4 6 1013.6 - 0.0 - - - - - - -
13/10:30am 27.5 E 1 5 1013.9 - 0.0 - - - - - - -
13/10:00am 25.9 S 1 3 1014.3 - 0.0 - - - - - - -
13/09:30am 25.0 NNE 1 3 1014.5 - 0.0 - - - - - - -
13/09:00am 24.0 N 1 3 1014.8 - 0.0 - - - - - - -
13/08:30am 22.2 N 1 2 1014.7 - 0.0 - - - - - - -
13/08:00am 21.1 CALM 0 0 1014.7 - 0.0 - - - - - - -
13/07:30am 19.4 CALM 0 0 1014.4 - 0.0 - - - - - - -
13/07:00am 17.1 CALM 0 0 1014.4 - 0.0 - - - - - - -
13/06:30am 15.4 CALM 0 0 1014.2 - 0.0 - - - - - - -
13/06:00am 14.9 CALM 0 0 1014.0 - 0.0 - - - - - - -
13/05:30am 15.0 CALM 0 0 1013.8 - 0.0 - - - - - - -
13/05:00am 15.0 CALM 0 0 1013.6 - 0.0 - - - - - - -
13/04:30am 15.4 CALM 0 0 1013.6 - 0.0 - - - - - - -
13/04:00am 15.6 CALM 0 0 1013.6 - 0.0 - - - - - - -
13/03:30am 15.8 CALM 0 0 1013.8 - 0.0 - - - - - - -
13/03:00am 16.4 CALM 0 0 1014.0 - 0.0 - - - - - - -
13/02:30am 16.6 CALM 0 0 1014.2 - 0.0 - - - - - - -
13/02:00am 16.8 CALM 0 0 1014.6 - 0.0 - - - - - - -
13/01:30am 17.3 CALM 0 0 1015.0 - 0.0 - - - - - - -
13/01:00am 17.7 CALM 0 0 1015.3 - 0.0 - - - - - - -
13/12:30am 17.8 CALM 0 0 1015.5 - 0.0 - - - - - - -
13/12:00am 18.3 CALM 0 0 1015.4 - 0.0 - - - - - - -
 
Date/Time
EDT
Temp
°C
Wind Pressure Rain since
9am
mm
Weather Cloud Vis
km
Sea
Height
m
Swell
Dir  Spd
kts
Gust
kts
hPa Trend Height
m
Period
s
Dir
12/11:30pm 18.5 CALM 0 0 1015.6 - 0.0 - - - - - - -
12/11:00pm 18.8 CALM 0 0 1015.7 - 0.0 - - - - - - -
12/10:30pm 19.2 CALM 0 0 1015.6 - 0.0 - - - - - - -
12/10:00pm 19.7 CALM 0 0 1015.6 - 0.0 - - - - - - -
12/09:30pm 20.4 CALM 0 0 1015.5 - 0.0 - - - - - - -
12/09:00pm 21.3 CALM 0 0 1015.5 - 0.0 - - - - - - -
12/08:30pm 21.9 E 2 3 1015.3 - 0.0 - - - - - - -
12/08:00pm 22.9 E 2 5 1015.3 - 0.0 - - - - - - -
12/07:30pm 23.7 ESE 3 5 1015.2 - 0.0 - - - - - - -
12/07:00pm 24.4 ESE 6 9 1015.1 - 0.0 - - - - - - -
12/06:30pm 24.8 E 5 9 1015.1 - 0.0 - - - - - - -
12/06:00pm 25.1 ESE 7 10 1014.9 - 0.0 - - - - - - -
12/05:30pm 25.2 E 8 12 1014.8 - 0.0 - - - - - - -
12/05:00pm 25.6 E 7 13 1015.0 - 0.0 - - - - - - -
12/04:30pm 25.4 E 8 16 1015.2 - 0.0 - - - - - - -
12/04:00pm 25.5 ESE 8 15 1015.6 - 0.0 - - - - - - -
12/03:30pm 25.0 E 10 16 1016.1 - 0.0 - - - - - - -
12/03:00pm 25.4 E 10 16 1016.5 - 0.0 - - - - - - -
12/02:30pm 25.8 ENE 8 13 1016.8 - 0.0 - - - - - - -
12/02:00pm 25.9 E 8 15 1017.0 - 0.0 - - - - - - -
12/01:30pm 25.8 ESE 10 17 1017.3 - 0.0 - - - - - - -
12/01:00pm 25.9 ENE 7 12 1017.6 - 0.0 - - - - - - -
12/12:30pm 25.9 E 9 16 1017.9 - 0.0 - - - - - - -
12/12:00pm 25.6 ESE 10 15 1018.1 - 0.0 - - - - - - -
12/11:30am 25.9 E 8 12 1018.4 - 0.0 - - - - - - -
12/11:00am 25.8 E 6 11 1018.5 - 0.0 - - - - - - -
12/10:30am 25.1 ESE 4 7 1018.8 - 0.0 - - - - - - -
12/10:00am 25.1 ENE 5 8 1019.0 - 0.0 - - - - - - -
12/09:30am 24.6 N 4 8 1019.2 - 0.0 - - - - - - -
12/09:00am 23.2 NNE 3 5 1019.3 - 0.0 - - - - - - -
12/08:30am 22.2 NNE 2 6 1019.3 - 0.0 - - - - - - -
12/08:00am 21.3 CALM 0 1 1019.3 - 0.0 - - - - - - -
12/07:30am 20.0 CALM 0 0 1019.0 - 0.0 - - - - - - -
12/07:00am 17.3 CALM 0 0 1018.8 - 0.0 - - - - - - -
12/06:30am 15.5 CALM 0 0 1018.5 - 0.0 - - - - - - -
12/06:00am 14.8 CALM 0 0 1018.3 - 0.0 - - - - - - -
12/05:30am 15.0 CALM 0 0 1018.1 - 0.0 - - - - - - -
12/05:00am 14.9 CALM 0 0 1017.9 - 0.0 - - - - - - -
12/04:30am 15.0 CALM 0 0 1017.7 - 0.0 - - - - - - -
12/04:00am 15.5 CALM 0 0 1017.7 - 0.0 - - - - - - -
12/03:30am 15.6 CALM 0 0 1017.8 - 0.0 - - - - - - -
12/03:00am 15.8 CALM 0 0 1017.8 - 0.0 - - - - - - -
12/02:30am 16.0 CALM 0 0 1017.9 - 0.0 - - - - - - -
12/02:00am 16.3 CALM 0 0 1018.0 - 0.0 - - - - - - -
12/01:30am 16.4 CALM 0 0 1018.2 - 0.0 - - - - - - -
12/01:00am 16.9 CALM 0 0 1018.5 - 0.0 - - - - - - -
12/12:30am 17.4 CALM 0 0 1018.6 - 0.0 - - - - - - -
12/12:00am 17.9 CALM 0 0 1018.8 - 0.0 - - - - - - -
 
Date/Time
EDT
Temp
°C
Wind Pressure Rain since
9am
mm
Weather Cloud Vis
km
Sea
Height
m
Swell
Dir  Spd
kts
Gust
kts
hPa Trend Height
m
Period
s
Dir
11/11:30pm 18.1 CALM 0 0 1018.5 - 0.0 - - - - - - -
11/11:00pm 18.5 CALM 0 0 1018.5 - 0.0 - - - - - - -
11/10:30pm 18.9 CALM 0 0 1018.4 - 0.0 - - - - - - -
11/10:00pm 19.8 CALM 0 0 1018.3 - 0.0 - - - - - - -
11/09:30pm 20.9 E 1 3 1018.1 - 0.0 - - - - - - -
11/09:00pm 21.4 ENE 2 5 1017.9 - 0.0 - - - - - - -
11/08:30pm 21.6 ENE 3 5 1017.6 - 0.0 - - - - - - -
11/08:00pm 22.0 E 3 6 1017.5 - 0.0 - - - - - - -
11/07:30pm 22.7 E 4 9 1017.3 - 0.0 - - - - - - -
11/07:00pm 23.5 ENE 5 9 1017.0 - 0.0 - - - - - - -
11/06:30pm 24.2 ENE 6 11 1016.8 - 0.0 - - - - - - -
11/06:00pm 24.4 E 6 14 1016.6 - 0.0 - - - - - - -
11/05:30pm 24.6 E 6 10 1016.7 - 0.0 - - - - - - -
11/05:00pm 24.6 E 8 15 1016.7 - 0.0 - - - - - - -
11/04:30pm 24.7 E 8 15 1016.7 - 0.0 - - - - - - -
11/04:00pm 24.6 E 10 18 1017.2 - 0.0 - - - - - - -
11/03:30pm 24.9 ENE 8 16 1017.4 - 0.0 - - - - - - -
11/03:00pm 25.3 E 9 16 1017.5 - 0.0 - - - - - - -
11/02:30pm 25.7 E 10 15 1017.6 - 0.0 - - - - - - -
11/02:00pm 25.9 ESE 8 15 1017.9 - 0.0 - - - - - - -
11/01:30pm 25.4 E 8 14 1018.2 - 0.0 - - - - - - -
11/01:00pm 25.2 ENE 8 13 1018.5 - 0.0 - - - - - - -
11/12:30pm 25.9 ENE 7 11 1019.0 - 0.0 - - - - - - -
11/12:00pm 26.4 ESE 5 10 1019.4 - 0.0 - - - - - - -
11/11:30am 25.8 E 5 9 1019.7 - 0.0 - - - - - - -
11/11:00am 25.7 NNE 2 4 1020.0 - 0.0 - - - - - - -
11/10:30am 25.0 NE 3 8 1020.2 - 0.0 - - - - - - -
11/10:00am 24.0 N 6 10 1020.4 - 0.0 - - - - - - -
11/09:30am 23.6 N 4 8 1020.6 - 0.0 - - - - - - -
11/09:00am 22.7 N 3 6 1020.7 - 0.0 - - - - - - -
11/08:30am 21.3 NE 2 4 1020.9 - 0.0 - - - - - - -
11/08:00am 19.9 CALM 0 0 1020.8 - 0.0 - - - - - - -

Other Formats:

Comma delimited format used in spreadsheet applications
http://www.bom.gov.au/fwo/IDN60701/IDN60701.95767.axf

JavaScript Object Notation format (JSON) in row-major order
http://www.bom.gov.au/fwo/IDN60701/IDN60701.95767.json